Time;durP1;ratioP1;P1;durP2;ratioP2;P2;SDS_P1;SDS_P2;PMS_P1;PMS_P2;Temp;Humidity;BMP_temperature;BMP_pressure;BME280_temperature;BME280_humidity;BME280_pressure;Samples;Min_cycle;Max_cycle;Signal;HPM_P1;HPM_P2
2021/03/26 00:02:06;;;;;;;23.55;17.25;;;6.80;98.30;;;;;;5031161;28;20052;-87
2021/03/26 00:04:31;;;;;;;24.63;16.90;;;6.80;98.50;;;;;;5032278;28;20384;-87
2021/03/26 00:06:57;;;;;;;31.55;18.70;;;6.80;98.70;;;;;;5031302;28;20485;-87
2021/03/26 00:09:26;;;;;;;30.20;19.77;;;6.80;99.10;;;;;;5030901;28;20558;-86
2021/03/26 00:11:58;;;;;;;33.47;21.93;;;6.70;99.90;;;;;;5032226;28;20025;-87
2021/03/26 00:14:25;;;;;;;31.38;21.98;;;6.70;99.90;;;;;;5045510;28;20635;-86
2021/03/26 00:16:51;;;;;;;29.45;21.25;;;6.70;99.90;;;;;;5044167;28;20412;-87
2021/03/26 00:19:17;;;;;;;31.50;21.05;;;6.60;99.90;;;;;;5032149;28;20037;-87
2021/03/26 00:21:43;;;;;;;30.95;21.27;;;6.60;99.90;;;;;;5043988;28;20031;-87
2021/03/26 00:24:09;;;;;;;33.78;22.42;;;6.60;99.90;;;;;;5047234;28;20025;-87
2021/03/26 00:26:35;;;;;;;37.78;24.58;;;6.60;99.90;;;;;;5044619;28;20125;-87
2021/03/26 00:29:00;;;;;;;37.28;24.40;;;6.60;99.90;;;;;;5028471;28;20105;-87
2021/03/26 00:31:26;;;;;;;34.92;22.70;;;6.50;99.90;;;;;;5031136;28;20531;-86
2021/03/26 00:33:52;;;;;;;35.47;23.88;;;6.50;99.90;;;;;;5041467;28;20032;-87
2021/03/26 00:36:18;;;;;;;39.10;24.83;;;6.50;99.90;;;;;;5030853;28;20013;-87
2021/03/26 00:38:43;;;;;;;39.47;26.63;;;6.50;99.90;;;;;;5045559;28;20057;-87
2021/03/26 00:41:10;;;;;;;43.05;26.77;;;6.50;99.90;;;;;;5034642;28;20037;-87
2021/03/26 00:43:35;;;;;;;38.65;25.77;;;6.50;99.90;;;;;;5042251;28;20079;-87
2021/03/26 00:46:01;;;;;;;42.00;27.33;;;6.60;99.90;;;;;;5049109;28;20472;-87
2021/03/26 00:48:27;;;;;;;39.85;26.08;;;6.60;99.90;;;;;;5035685;28;20022;-87
2021/03/26 00:50:59;;;;;;;41.38;27.52;;;6.50;99.90;;;;;;5050556;28;20044;-87
2021/03/26 00:53:32;;;;;;;43.22;26.70;;;6.60;99.90;;;;;;5034382;28;20105;-87
2021/03/26 00:55:58;;;;;;;39.38;27.00;;;6.60;99.90;;;;;;5032505;28;20048;-87
2021/03/26 00:58:24;;;;;;;35.15;25.77;;;6.60;99.90;;;;;;5033930;28;20099;-87
2021/03/26 01:00:52;;;;;;;38.97;25.05;;;6.60;99.90;;;;;;5035222;28;20035;-87
2021/03/26 01:03:19;;;;;;;36.95;24.83;;;6.60;99.90;;;;;;5030548;28;20065;-87
2021/03/26 01:05:51;;;;;;;36.08;24.92;;;6.60;99.90;;;;;;5049930;28;20048;-87
2021/03/26 01:08:17;;;;;;;44.22;26.85;;;6.60;99.90;;;;;;5035406;28;20026;-87
2021/03/26 01:10:47;;;;;;;38.15;25.73;;;6.50;99.90;;;;;;5028487;28;20558;-87
2021/03/26 01:13:16;;;;;;;39.13;25.13;;;6.50;99.90;;;;;;5047607;28;20025;-86
2021/03/26 01:15:43;;;;;;;34.38;24.65;;;6.50;99.90;;;;;;5048725;28;20045;-87
2021/03/26 01:18:14;;;;;;;37.17;25.23;;;6.50;99.90;;;;;;5046317;28;20516;-87
2021/03/26 01:20:40;;;;;;;38.15;25.17;;;6.50;99.90;;;;;;5028467;28;20071;-87
2021/03/26 01:23:06;;;;;;;38.03;25.80;;;6.60;99.90;;;;;;5046698;28;20395;-87
2021/03/26 01:25:36;;;;;;;39.72;25.58;;;6.70;99.90;;;;;;5033775;28;20117;-87
2021/03/26 01:28:02;;;;;;;38.80;25.75;;;6.70;99.90;;;;;;5033675;28;20029;-86
2021/03/26 01:30:30;;;;;;;38.63;26.55;;;6.80;99.90;;;;;;5046117;28;20116;-87
2021/03/26 01:32:56;;;;;;;38.28;25.27;;;6.80;99.90;;;;;;5048478;28;20075;-87
2021/03/26 01:35:22;;;;;;;37.15;25.33;;;6.80;99.90;;;;;;5033418;28;20025;-87
2021/03/26 01:37:48;;;;;;;37.83;24.98;;;6.90;99.90;;;;;;5022697;28;20121;-87
2021/03/26 01:40:20;;;;;;;40.28;23.65;;;6.90;99.90;;;;;;5034517;28;20077;-86
2021/03/26 01:42:46;;;;;;;36.67;23.40;;;6.90;99.90;;;;;;5033450;28;20409;-87
2021/03/26 01:45:18;;;;;;;36.08;23.33;;;6.80;99.90;;;;;;5048671;28;20049;-87
2021/03/26 01:47:45;;;;;;;36.35;24.55;;;6.80;99.90;;;;;;5033757;28;20082;-87
2021/03/26 01:50:14;;;;;;;36.72;24.90;;;6.70;99.90;;;;;;5025036;28;20100;-87
2021/03/26 01:52:40;;;;;;;40.57;26.07;;;6.70;99.90;;;;;;5049269;28;20041;-87
2021/03/26 01:55:08;;;;;;;38.58;24.85;;;6.70;99.90;;;;;;5032902;28;20041;-87
2021/03/26 01:57:34;;;;;;;39.28;26.00;;;6.70;99.90;;;;;;5033269;28;20384;-87
2021/03/26 02:00:00;;;;;;;36.78;24.50;;;6.70;99.90;;;;;;5032401;28;20022;-87
2021/03/26 02:02:26;;;;;;;37.47;25.27;;;6.70;99.90;;;;;;5048285;28;20512;-87
2021/03/26 02:04:52;;;;;;;40.42;25.60;;;6.70;99.90;;;;;;5034155;28;20088;-87
2021/03/26 02:07:20;;;;;;;41.95;24.75;;;6.70;99.90;;;;;;5049064;28;20052;-87
2021/03/26 02:09:45;;;;;;;40.00;26.48;;;6.70;99.90;;;;;;5049125;28;20033;-87
2021/03/26 02:12:30;;;;;;;45.63;28.48;;;6.60;99.90;;;;;;5047012;28;20539;-87
2021/03/26 02:15:03;;;;;;;39.13;27.02;;;6.70;99.90;;;;;;5033951;28;20121;-87
2021/03/26 02:17:32;;;;;;;45.30;27.50;;;6.60;99.90;;;;;;5032702;28;20028;-87
2021/03/26 02:20:09;;;;;;;41.67;27.60;;;6.60;99.90;;;;;;5047766;28;20112;-86
2021/03/26 02:22:36;;;;;;;39.92;27.00;;;6.60;99.90;;;;;;5032901;28;20029;-87
2021/03/26 02:25:07;;;;;;;39.00;26.88;;;6.60;99.90;;;;;;5027321;28;20029;-87
2021/03/26 02:27:37;;;;;;;49.97;29.38;;;6.50;99.90;;;;;;5032634;28;20029;-86
2021/03/26 02:30:22;;;;;;;44.95;29.25;;;6.50;99.90;;;;;;5032811;28;20022;-86
2021/03/26 02:32:48;;;;;;;45.72;28.83;;;6.50;99.90;;;;;;5044341;28;20025;-87
2021/03/26 02:35:20;;;;;;;48.85;32.40;;;6.50;99.90;;;;;;5032338;28;20049;-87
2021/03/26 02:38:00;;;;;;;48.85;31.52;;;6.50;99.90;;;;;;5045022;28;20021;-86
2021/03/26 02:40:35;;;;;;;46.58;30.27;;;6.50;99.90;;;;;;5031973;28;20045;-87
2021/03/26 02:43:23;;;;;;;55.15;33.40;;;6.50;99.90;;;;;;5032186;28;20033;-87
2021/03/26 02:45:59;;;;;;;49.63;33.42;;;6.40;99.90;;;;;;5023427;28;20413;-87
2021/03/26 02:48:37;;;;;;;54.85;32.85;;;6.40;99.90;;;;;;5019461;28;20036;-87
2021/03/26 02:51:17;;;;;;;51.60;31.95;;;6.50;99.90;;;;;;5047869;28;20020;-86
2021/03/26 02:53:51;;;;;;;50.80;32.42;;;6.50;99.90;;;;;;5048859;28;20021;-87
2021/03/26 02:56:25;;;;;;;54.50;34.10;;;6.60;99.90;;;;;;5042863;28;20022;-87
2021/03/26 02:59:03;;;;;;;51.30;33.25;;;6.60;99.90;;;;;;5031374;28;20113;-87
2021/03/26 03:01:37;;;;;;;56.63;34.25;;;6.70;99.90;;;;;;5031504;28;20029;-86
2021/03/26 03:04:15;;;;;;;52.05;31.15;;;6.70;99.90;;;;;;5033045;28;20059;-86
2021/03/26 03:06:48;;;;;;;53.35;35.08;;;6.70;99.90;;;;;;5031289;28;20026;-87
2021/03/26 03:09:15;;;;;;;55.83;35.65;;;6.70;99.90;;;;;;5027570;28;20036;-87
2021/03/26 03:11:55;;;;;;;53.85;33.42;;;6.70;99.90;;;;;;5046459;28;20022;-87
2021/03/26 03:14:34;;;;;;;53.55;34.47;;;6.70;99.90;;;;;;5031820;28;20120;-87
2021/03/26 03:17:11;;;;;;;60.95;36.42;;;6.70;99.90;;;;;;5030900;28;20108;-87
2021/03/26 03:20:07;;;;;;;54.70;35.38;;;6.70;99.90;;;;;;5032829;28;20104;-87
2021/03/26 03:22:54;;;;;;;55.28;34.83;;;6.80;99.90;;;;;;5028841;28;20029;-87
2021/03/26 03:25:24;;;;;;;57.88;36.75;;;6.80;99.90;;;;;;5047165;28;20021;-87
2021/03/26 03:28:04;;;;;;;60.40;36.40;;;6.90;99.90;;;;;;5047818;28;20044;-87
2021/03/26 03:31:00;;;;;;;57.35;34.67;;;6.90;99.90;;;;;;5028973;28;20021;-87
2021/03/26 03:33:50;;;;;;;55.20;35.22;;;7.00;99.90;;;;;;5031280;28;20021;-87
2021/03/26 03:36:20;;;;;;;59.25;36.03;;;7.00;99.90;;;;;;5043880;28;20043;-87
2021/03/26 03:38:57;;;;;;;60.33;35.47;;;7.00;99.90;;;;;;5031048;28;20037;-86
2021/03/26 03:41:43;;;;;;;58.90;36.40;;;7.00;99.90;;;;;;5031481;28;20424;-87
2021/03/26 03:44:39;;;;;;;55.20;34.92;;;7.00;99.90;;;;;;5024041;28;20029;-88
2021/03/26 03:47:31;;;;;;;59.58;36.28;;;7.00;99.90;;;;;;5031084;28;20021;-87
2021/03/26 03:50:14;;;;;;;57.55;35.10;;;7.00;99.90;;;;;;5032557;28;20029;-87
2021/03/26 03:52:51;;;;;;;56.58;34.97;;;7.00;99.90;;;;;;5031476;28;20435;-87
2021/03/26 03:55:24;;;;;;;55.38;35.35;;;7.00;99.90;;;;;;5045271;28;20469;-87
2021/03/26 03:58:11;;;;;;;54.97;35.25;;;7.00;99.90;;;;;;5039961;28;20018;-87
2021/03/26 04:00:48;;;;;;;53.67;33.67;;;7.10;99.90;;;;;;5031143;28;20049;-87
2021/03/26 04:03:22;;;;;;;55.70;35.22;;;7.00;99.90;;;;;;5046704;28;20437;-87
2021/03/26 04:05:57;;;;;;;54.63;35.03;;;7.00;99.90;;;;;;5031020;28;20021;-87
2021/03/26 04:08:29;;;;;;;54.55;35.30;;;7.10;99.90;;;;;;5032294;28;20550;-86
2021/03/26 04:11:06;;;;;;;53.85;34.60;;;7.10;99.90;;;;;;5031072;28;20030;-87
2021/03/26 04:13:41;;;;;;;53.75;34.60;;;7.00;99.90;;;;;;5029383;28;20491;-87
2021/03/26 04:16:10;;;;;;;53.22;34.25;;;7.10;99.90;;;;;;5033301;28;20014;-87
2021/03/26 04:18:41;;;;;;;55.28;36.33;;;7.00;99.90;;;;;;5036669;28;20018;-87
2021/03/26 04:21:14;;;;;;;54.97;35.70;;;7.00;99.90;;;;;;5036141;28;20033;-87
2021/03/26 04:24:02;;;;;;;54.63;35.63;;;7.10;99.90;;;;;;5034801;28;20049;-87
2021/03/26 04:26:39;;;;;;;54.00;34.55;;;7.10;99.90;;;;;;5050938;28;20484;-87
2021/03/26 04:29:30;;;;;;;55.17;35.88;;;7.00;99.90;;;;;;5035916;28;20374;-87
2021/03/26 04:32:14;;;;;;;63.22;38.60;;;7.00;99.90;;;;;;5034220;28;20045;-86
2021/03/26 04:34:42;;;;;;;57.17;35.30;;;7.00;99.90;;;;;;5034680;28;20040;-86
2021/03/26 04:37:17;;;;;;;57.10;36.08;;;7.00;99.90;;;;;;5030528;28;20014;-87
2021/03/26 04:39:51;;;;;;;54.35;34.95;;;7.00;99.90;;;;;;5035481;28;20057;-87
2021/03/26 04:42:29;;;;;;;56.40;36.08;;;7.00;99.90;;;;;;5050139;28;20033;-87
2021/03/26 04:45:27;;;;;;;53.35;35.17;;;7.00;99.90;;;;;;5035762;28;20040;-87
2021/03/26 04:48:09;;;;;;;52.05;33.30;;;7.00;99.90;;;;;;5048488;28;20025;-87
2021/03/26 04:50:44;;;;;;;56.72;36.72;;;7.00;99.90;;;;;;5034484;28;20044;-87
2021/03/26 04:53:19;;;;;;;57.33;34.72;;;7.00;99.90;;;;;;5026851;28;20018;-87
2021/03/26 04:55:53;;;;;;;54.63;36.03;;;7.00;99.90;;;;;;5034278;28;20029;-87
2021/03/26 04:58:24;;;;;;;54.00;32.15;;;7.00;99.90;;;;;;5034443;28;20026;-87
2021/03/26 05:00:58;;;;;;;54.60;33.83;;;7.10;99.90;;;;;;5049139;28;20025;-86
2021/03/26 05:03:35;;;;;;;54.05;34.40;;;7.10;99.90;;;;;;5017134;28;20478;-87
2021/03/26 05:06:06;;;;;;;56.15;34.10;;;7.10;99.90;;;;;;5034048;28;20067;-87
2021/03/26 05:08:33;;;;;;;53.85;33.13;;;7.10;99.90;;;;;;5023593;28;20484;-87
2021/03/26 05:11:02;;;;;;;53.72;33.13;;;7.20;99.90;;;;;;5034090;28;20029;-86
2021/03/26 05:13:30;;;;;;;57.47;33.85;;;7.20;99.90;;;;;;5045479;28;20021;-87
2021/03/26 05:16:21;;;;;;;54.60;32.70;;;7.30;99.90;;;;;;5033843;28;20059;-87
2021/03/26 05:19:00;;;;;;;53.30;33.45;;;7.40;99.90;;;;;;5031458;28;20038;-87
2021/03/26 05:21:35;;;;;;;52.17;32.77;;;7.40;99.90;;;;;;5032636;28;20017;-87
2021/03/26 05:24:09;;;;;;;51.50;32.03;;;7.40;99.90;;;;;;5023756;28;20022;-86
2021/03/26 05:26:35;;;;;;;49.95;32.53;;;7.40;99.90;;;;;;5034610;28;20132;-87
2021/03/26 05:29:03;;;;;;;46.28;31.08;;;7.50;99.90;;;;;;5047395;28;20029;-87
2021/03/26 05:31:49;;;;;;;53.10;31.35;;;7.50;99.90;;;;;;5033514;28;20519;-87
2021/03/26 05:34:28;;;;;;;45.67;30.88;;;7.50;99.90;;;;;;5030218;28;20072;-87
2021/03/26 05:37:08;;;;;;;49.17;30.50;;;7.50;99.90;;;;;;5048436;28;20033;-87
2021/03/26 05:39:35;;;;;;;54.53;31.33;;;7.50;99.90;;;;;;5028886;28;20289;-87
2021/03/26 05:42:40;;;;;;;50.88;30.40;;;7.60;99.90;;;;;;5049261;28;20396;-87
2021/03/26 05:45:08;;;;;;;45.85;30.92;;;7.60;99.90;;;;;;5034290;28;20025;-86
2021/03/26 05:47:55;;;;;;;46.72;29.42;;;7.60;99.90;;;;;;5033567;28;20025;-86
2021/03/26 05:50:21;;;;;;;51.10;30.17;;;7.70;99.90;;;;;;5033371;28;20022;-87
2021/03/26 05:53:14;;;;;;;51.22;32.53;;;7.70;99.90;;;;;;5049022;28;20021;-87
2021/03/26 05:56:06;;;;;;;49.28;31.70;;;7.70;99.90;;;;;;5034611;28;20045;-87
2021/03/26 05:58:49;;;;;;;46.03;30.10;;;7.70;99.90;;;;;;5014881;28;20064;-87
2021/03/26 06:01:22;;;;;;;47.63;30.52;;;7.70;99.90;;;;;;5029577;28;20018;-87
2021/03/26 06:04:27;;;;;;;49.15;30.70;;;7.70;99.90;;;;;;5015270;28;20036;-86
2021/03/26 06:07:37;;;;;;;48.03;30.70;;;7.80;99.90;;;;;;5013756;28;20029;-86
2021/03/26 06:10:12;;;;;;;50.47;33.45;;;7.80;99.90;;;;;;5013624;28;20022;-87
2021/03/26 06:13:06;;;;;;;50.50;30.73;;;7.70;99.90;;;;;;5013646;28;20049;-87
2021/03/26 06:15:56;;;;;;;52.85;34.03;;;7.70;99.90;;;;;;5024352;28;20501;-86
2021/03/26 06:18:31;;;;;;;51.50;30.88;;;7.80;99.90;;;;;;5049686;28;20029;-86
2021/03/26 06:21:17;;;;;;;49.58;31.17;;;7.80;99.90;;;;;;5048944;28;20029;-86
2021/03/26 06:23:57;;;;;;;52.03;32.28;;;7.80;99.90;;;;;;5049838;28;20036;-86
2021/03/26 06:27:00;;;;;;;53.90;32.65;;;7.80;99.90;;;;;;5035439;28;20096;-90
2021/03/26 06:29:35;;;;;;;53.83;32.15;;;7.80;99.90;;;;;;5032185;28;20033;-90
2021/03/26 06:32:18;;;;;;;52.78;33.25;;;7.80;99.90;;;;;;5027024;28;20018;-86
2021/03/26 06:35:17;;;;;;;51.67;32.47;;;7.80;99.90;;;;;;5012484;28;20029;-85
2021/03/26 06:38:16;;;;;;;54.53;33.47;;;7.90;99.90;;;;;;5012484;28;20444;-87
2021/03/26 06:41:05;;;;;;;52.90;33.70;;;7.90;99.90;;;;;;5014074;28;20057;-87
2021/03/26 06:44:05;;;;;;;49.38;31.83;;;7.90;99.90;;;;;;5012990;28;20018;-87
2021/03/26 06:46:40;;;;;;;48.88;31.33;;;8.00;99.90;;;;;;5013142;28;20076;-88
2021/03/26 06:49:48;;;;;;;53.33;32.67;;;8.00;99.90;;;;;;5013533;28;20033;-90
2021/03/26 06:52:38;;;;;;;51.95;33.45;;;8.00;99.90;;;;;;5014215;28;20053;-89
2021/03/26 06:55:26;;;;;;;50.55;32.17;;;8.10;99.90;;;;;;5015236;28;20477;-89
2021/03/26 06:58:22;;;;;;;50.45;31.60;;;8.10;99.90;;;;;;5013780;28;20042;-89
2021/03/26 07:00:48;;;;;;;51.42;32.47;;;8.10;99.90;;;;;;5029670;28;20418;-88
2021/03/26 07:03:38;;;;;;;53.67;33.30;;;8.20;99.90;;;;;;5047616;28;20579;-87
2021/03/26 07:06:28;;;;;;;52.47;33.58;;;8.20;99.90;;;;;;5040134;28;20057;-89
2021/03/26 07:09:06;;;;;;;52.05;33.45;;;8.20;99.90;;;;;;5032429;28;20416;-89
2021/03/26 07:11:50;;;;;;;57.88;35.30;;;8.20;99.90;;;;;;5033710;28;20026;-90
2021/03/26 07:14:38;;;;;;;54.85;32.17;;;8.30;99.90;;;;;;5033266;28;20029;-89
2021/03/26 07:17:41;;;;;;;51.08;33.30;;;8.40;99.90;;;;;;5013505;28;20029;-88
2021/03/26 07:20:48;;;;;;;49.78;33.35;;;8.40;99.90;;;;;;5013035;28;20033;-89
2021/03/26 07:23:46;;;;;;;48.25;31.38;;;8.50;99.90;;;;;;5010236;28;20034;-89
2021/03/26 07:26:49;;;;;;;46.72;30.90;;;8.40;99.90;;;;;;5013646;28;20021;-90
2021/03/26 07:29:30;;;;;;;49.75;31.60;;;8.50;99.90;;;;;;5029620;28;20409;-88
2021/03/26 07:32:13;;;;;;;53.97;34.03;;;8.50;99.90;;;;;;5013867;28;20028;-89
2021/03/26 07:34:57;;;;;;;51.97;32.45;;;8.60;99.90;;;;;;5042292;28;20022;-91
2021/03/26 07:37:46;;;;;;;51.25;33.08;;;8.70;99.90;;;;;;5014290;28;20026;-90
2021/03/26 07:40:37;;;;;;;46.28;31.10;;;8.80;99.90;;;;;;5031825;28;20053;-88
2021/03/26 07:43:27;;;;;;;47.25;31.13;;;8.80;99.90;;;;;;5032112;28;20076;-88
2021/03/26 07:46:10;;;;;;;49.65;32.22;;;8.80;99.90;;;;;;5032194;28;20040;-89
2021/03/26 07:48:57;;;;;;;49.75;31.85;;;8.80;99.90;;;;;;5032448;28;20029;-90
2021/03/26 07:51:25;;;;;;;47.88;30.63;;;8.80;99.90;;;;;;5029142;28;20057;-88
2021/03/26 07:54:18;;;;;;;45.90;30.48;;;8.70;99.90;;;;;;5031722;28;20025;-88
2021/03/26 07:57:16;;;;;;;49.80;32.60;;;8.80;99.90;;;;;;5029085;28;20108;-88
2021/03/26 08:00:07;;;;;;;48.53;30.67;;;8.80;99.90;;;;;;5028591;28;20021;-88
2021/03/26 08:02:38;;;;;;;49.88;31.20;;;8.90;99.90;;;;;;5037869;28;20017;-89
2021/03/26 08:05:17;;;;;;;47.60;30.52;;;8.90;99.90;;;;;;5031854;28;20057;-88
2021/03/26 08:08:20;;;;;;;47.07;31.30;;;9.10;99.90;;;;;;5031542;28;20037;-88
2021/03/26 08:11:07;;;;;;;51.03;33.22;;;9.10;99.90;;;;;;5030443;28;20040;-88
2021/03/26 08:14:04;;;;;;;43.88;29.88;;;9.20;99.90;;;;;;5031190;28;20029;-87
2021/03/26 08:16:46;;;;;;;45.45;28.55;;;9.30;99.90;;;;;;5040481;28;20021;-88
2021/03/26 08:19:30;;;;;;;42.17;28.27;;;9.40;99.90;;;;;;5027238;28;20026;-87
2021/03/26 08:22:07;;;;;;;41.13;27.40;;;9.50;99.90;;;;;;5030558;28;20387;-88
2021/03/26 08:24:54;;;;;;;45.53;29.20;;;9.60;99.90;;;;;;5038457;28;20168;-87
2021/03/26 08:27:24;;;;;;;40.75;28.42;;;9.70;99.90;;;;;;5023653;28;20025;-88
2021/03/26 08:29:58;;;;;;;41.58;26.63;;;9.80;99.90;;;;;;5032029;28;20187;-88
2021/03/26 08:32:33;;;;;;;39.38;26.38;;;9.90;99.90;;;;;;5029956;28;20021;-88
2021/03/26 08:35:20;;;;;;;38.70;26.90;;;10.00;99.90;;;;;;5019674;28;20034;-87
2021/03/26 08:38:04;;;;;;;38.83;27.02;;;10.10;99.90;;;;;;5028585;28;20382;-87
2021/03/26 08:41:15;;;;;;;38.65;26.83;;;10.20;99.90;;;;;;5014465;28;20091;-86
2021/03/26 08:43:41;;;;;;;37.67;25.33;;;10.30;99.90;;;;;;5026902;28;20392;-87
2021/03/26 08:46:33;;;;;;;41.70;25.13;;;10.40;99.90;;;;;;5047973;28;20026;-86
2021/03/26 08:49:24;;;;;;;35.80;24.88;;;10.50;99.90;;;;;;5029407;28;20052;-87
2021/03/26 08:52:12;;;;;;;35.63;22.83;;;10.70;99.90;;;;;;5032135;28;20029;-86
2021/03/26 08:55:14;;;;;;;39.13;26.42;;;10.80;99.90;;;;;;5023822;28;20113;-84
2021/03/26 08:58:07;;;;;;;39.30;23.48;;;10.90;99.90;;;;;;5007606;28;20030;-85
2021/03/26 09:01:14;;;;;;;36.33;22.17;;;11.00;99.90;;;;;;5016593;28;20048;-86
2021/03/26 09:04:10;;;;;;;32.65;21.05;;;11.10;99.90;;;;;;5027432;28;20029;-85
2021/03/26 09:06:59;;;;;;;30.90;19.52;;;11.50;99.90;;;;;;5034723;28;20075;-86
2021/03/26 09:09:52;;;;;;;27.95;19.25;;;11.90;98.60;;;;;;5035675;28;20033;-86
2021/03/26 09:12:31;;;;;;;28.95;18.65;;;12.10;96.90;;;;;;5034351;28;20156;-85
2021/03/26 09:14:57;;;;;;;26.35;18.05;;;12.10;95.60;;;;;;5031934;28;20025;-86
2021/03/26 09:17:31;;;;;;;28.88;18.88;;;12.20;95.00;;;;;;5035037;28;20017;-86
2021/03/26 09:20:29;;;;;;;25.58;17.77;;;12.30;94.60;;;;;;5033725;28;20377;-86
2021/03/26 09:23:32;;;;;;;26.48;16.70;;;12.80;94.10;;;;;;5026867;28;20045;-86
2021/03/26 09:26:35;;;;;;;25.00;17.50;;;13.80;92.50;;;;;;5038170;28;20113;-85
2021/03/26 09:29:23;;;;;;;22.70;15.50;;;14.90;90.10;;;;;;5030496;28;20120;-86
2021/03/26 09:32:00;;;;;;;22.88;14.77;;;15.50;86.30;;;;;;5032616;28;20029;-86
2021/03/26 09:34:36;;;;;;;20.40;13.68;;;15.40;84.60;;;;;;5035053;28;20022;-85
2021/03/26 09:37:07;;;;;;;18.85;13.02;;;15.10;82.40;;;;;;5028252;28;20100;-86
2021/03/26 09:39:36;;;;;;;18.23;12.55;;;14.70;81.30;;;;;;5032995;28;20500;-86
2021/03/26 09:42:41;;;;;;;16.35;10.57;;;14.40;82.00;;;;;;5027738;28;20033;-86
2021/03/26 09:45:23;;;;;;;16.38;11.63;;;14.20;81.90;;;;;;5047842;28;20021;-86
2021/03/26 09:48:14;;;;;;;16.80;11.75;;;14.20;82.80;;;;;;5023081;28;20033;-86
2021/03/26 09:51:09;;;;;;;15.18;10.18;;;14.00;81.50;;;;;;5021773;28;20426;-86
2021/03/26 09:53:40;;;;;;;19.20;12.43;;;13.70;82.30;;;;;;5024895;28;20494;-86
2021/03/26 09:56:27;;;;;;;17.48;11.63;;;13.50;83.30;;;;;;5027910;28;20021;-86
2021/03/26 09:58:59;;;;;;;19.77;10.98;;;13.50;83.40;;;;;;5023516;28;20508;-86
2021/03/26 10:01:46;;;;;;;16.15;10.55;;;13.50;84.70;;;;;;5033036;28;20025;-85
2021/03/26 10:04:24;;;;;;;17.05;9.88;;;13.50;83.90;;;;;;5032298;28;20112;-86
2021/03/26 10:07:17;;;;;;;22.35;13.05;;;13.40;83.20;;;;;;5031218;28;20127;-86
2021/03/26 10:09:47;;;;;;;18.90;9.85;;;13.40;83.10;;;;;;5033709;28;20025;-87
2021/03/26 10:12:25;;;;;;;12.10;6.30;;;13.30;83.20;;;;;;5032740;28;20113;-86
2021/03/26 10:15:01;;;;;;;18.60;8.52;;;13.30;81.60;;;;;;5037905;28;20408;-87
2021/03/26 10:17:37;;;;;;;12.63;7.03;;;13.20;81.30;;;;;;5053973;28;20048;-85
2021/03/26 10:20:31;;;;;;;10.57;6.30;;;13.20;81.70;;;;;;5054109;28;20067;-85
2021/03/26 10:23:06;;;;;;;15.27;7.55;;;13.20;80.30;;;;;;5054029;28;20025;-86
2021/03/26 10:25:41;;;;;;;11.15;6.18;;;13.20;81.60;;;;;;5056176;28;20029;-85
2021/03/26 10:28:31;;;;;;;11.50;6.35;;;13.30;82.20;;;;;;5032698;28;20029;-85
2021/03/26 10:31:04;;;;;;;11.73;6.35;;;13.40;80.70;;;;;;5032590;28;20026;-85
2021/03/26 10:33:33;;;;;;;15.88;7.05;;;13.60;80.40;;;;;;5034132;28;20056;-83
2021/03/26 10:36:29;;;;;;;11.77;6.40;;;13.70;79.10;;;;;;5023795;28;20025;-85
2021/03/26 10:39:01;;;;;;;14.52;7.47;;;13.90;77.70;;;;;;5046891;28;20033;-83
2021/03/26 10:41:59;;;;;;;12.38;6.93;;;14.10;78.00;;;;;;5030241;28;20100;-84
2021/03/26 10:44:53;;;;;;;9.38;5.63;;;14.40;77.60;;;;;;5039257;28;20159;-86
2021/03/26 10:47:28;;;;;;;10.43;5.45;;;15.00;75.70;;;;;;5030464;28;20045;-84
2021/03/26 10:50:32;;;;;;;13.75;5.50;;;15.20;72.70;;;;;;5032470;28;20029;-89
2021/03/26 10:53:04;;;;;;;11.80;4.82;;;15.40;70.00;;;;;;5027339;28;20039;-83
2021/03/26 10:55:40;;;;;;;10.30;5.10;;;15.50;68.80;;;;;;5026466;28;20022;-83
2021/03/26 10:58:24;;;;;;;7.72;4.28;;;15.70;69.90;;;;;;5047124;28;20033;-85
2021/03/26 11:01:11;;;;;;;9.35;4.60;;;16.20;68.20;;;;;;5046054;28;20026;-87
2021/03/26 11:03:50;;;;;;;8.85;3.50;;;16.60;64.10;;;;;;5031209;28;20040;-86
2021/03/26 11:06:25;;;;;;;12.02;4.05;;;16.10;63.30;;;;;;5033166;28;20527;-85
2021/03/26 11:08:55;;;;;;;9.68;4.10;;;16.30;63.70;;;;;;5027527;28;20041;-86
2021/03/26 11:11:28;;;;;;;9.70;3.55;;;16.00;63.60;;;;;;5032535;28;20223;-88
2021/03/26 11:14:05;;;;;;;9.27;4.20;;;16.50;61.90;;;;;;5017818;28;20384;-85
2021/03/26 11:16:59;;;;;;;4.50;2.58;;;16.50;63.40;;;;;;5028478;28;20033;-87
2021/03/26 11:20:09;;;;;;;6.43;2.63;;;16.20;59.80;;;;;;5032179;28;20548;-84
2021/03/26 11:22:38;;;;;;;6.95;2.65;;;16.70;60.10;;;;;;5033092;28;20117;-85
2021/03/26 11:25:19;;;;;;;5.47;2.67;;;17.30;58.80;;;;;;5030597;28;20022;-84
2021/03/26 11:27:51;;;;;;;4.60;2.60;;;18.30;57.90;;;;;;5036490;28;20033;-84
2021/03/26 11:30:35;;;;;;;4.85;2.67;;;19.50;53.50;;;;;;5012954;28;20033;-84
2021/03/26 11:33:30;;;;;;;8.52;2.45;;;20.00;52.30;;;;;;5021593;28;20067;-84
2021/03/26 11:35:57;;;;;;;7.50;2.90;;;20.60;49.10;;;;;;5026193;28;20392;-84
2021/03/26 11:38:28;;;;;;;8.82;3.35;;;20.10;49.70;;;;;;5031391;28;20025;-84
2021/03/26 11:41:14;;;;;;;5.75;2.35;;;19.40;49.40;;;;;;5031570;28;20033;-89
2021/03/26 11:43:51;;;;;;;5.50;2.20;;;18.70;51.70;;;;;;5032913;28;20033;-85
2021/03/26 11:46:21;;;;;;;7.00;2.60;;;19.00;50.30;;;;;;5041010;28;20112;-85
2021/03/26 11:49:13;;;;;;;5.32;2.90;;;19.30;51.10;;;;;;5020458;28;20440;-85
2021/03/26 11:51:48;;;;;;;5.20;2.25;;;19.40;50.50;;;;;;5030940;28;20075;-87
2021/03/26 11:54:45;;;;;;;5.60;2.55;;;19.70;48.90;;;;;;5037655;28;20370;-87
2021/03/26 11:57:38;;;;;;;6.93;2.75;;;20.40;49.20;;;;;;5031914;28;20026;-88
2021/03/26 12:00:16;;;;;;;3.85;1.88;;;21.40;48.30;;;;;;5031548;28;20087;-86
2021/03/26 12:03:01;;;;;;;5.55;2.33;;;22.00;46.00;;;;;;5032395;28;20108;-87
2021/03/26 12:05:49;;;;;;;7.43;2.83;;;22.40;43.50;;;;;;5029654;28;20060;-88
2021/03/26 12:08:41;;;;;;;6.65;3.13;;;22.50;43.30;;;;;;5019248;28;20445;-88
2021/03/26 12:11:19;;;;;;;6.68;2.85;;;22.90;44.00;;;;;;5032350;28;20026;-88
2021/03/26 12:13:59;;;;;;;6.57;2.92;;;23.20;42.10;;;;;;5039490;28;20014;-87
2021/03/26 12:16:31;;;;;;;6.57;2.88;;;22.90;41.90;;;;;;5011408;28;20088;-87
2021/03/26 12:19:16;;;;;;;6.18;3.22;;;22.40;42.50;;;;;;5011996;28;20396;-86
2021/03/26 12:22:04;;;;;;;7.35;3.33;;;22.10;43.70;;;;;;5036726;28;20124;-87
2021/03/26 12:24:51;;;;;;;7.25;3.40;;;22.40;43.40;;;;;;5029198;28;20488;-84
2021/03/26 12:27:41;;;;;;;8.15;3.65;;;22.60;43.00;;;;;;5024866;28;20041;-85
2021/03/26 12:30:19;;;;;;;5.78;3.55;;;22.00;42.90;;;;;;5030814;28;20037;-85
2021/03/26 12:32:59;;;;;;;5.60;3.08;;;21.40;44.10;;;;;;5030585;28;20014;-85
2021/03/26 12:35:30;;;;;;;7.70;3.40;;;21.80;45.20;;;;;;5025505;28;20467;-83
2021/03/26 12:38:33;;;;;;;5.88;3.60;;;22.00;43.40;;;;;;5034634;28;20087;-82
2021/03/26 12:41:05;;;;;;;6.10;3.10;;;21.60;43.50;;;;;;5036000;28;20087;-81
2021/03/26 12:43:30;;;;;;;9.73;3.80;;;21.40;44.00;;;;;;5035823;28;20530;-82
2021/03/26 12:46:10;;;;;;;8.25;3.35;;;21.20;44.00;;;;;;5034362;28;20030;-81
2021/03/26 12:48:49;;;;;;;6.93;3.60;;;21.50;43.80;;;;;;5035870;28;20420;-81
2021/03/26 12:51:30;;;;;;;6.37;2.83;;;21.00;44.00;;;;;;5034364;28;20021;-82
2021/03/26 12:54:22;;;;;;;8.23;3.63;;;20.70;44.90;;;;;;5034074;28;20654;-82
2021/03/26 12:57:11;;;;;;;6.88;3.38;;;20.10;45.30;;;;;;5032230;28;20025;-84
2021/03/26 12:59:39;;;;;;;;;;;19.20;47.00;;;;;;5034993;28;20515;-84
2021/03/26 13:02:23;;;;;;;6.88;3.65;;;18.90;47.90;;;;;;5034373;28;19995;-84
2021/03/26 13:05:00;;;;;;;7.60;3.42;;;18.60;49.30;;;;;;5031819;28;20036;-84
2021/03/26 13:07:30;;;;;;;7.65;3.20;;;18.30;48.70;;;;;;5032432;28;20022;-82
2021/03/26 13:10:14;;;;;;;8.25;2.92;;;18.30;49.70;;;;;;5034778;28;20112;-82
2021/03/26 13:12:43;;;;;;;10.15;3.90;;;18.60;50.00;;;;;;5035018;28;20017;-82
2021/03/26 13:15:25;;;;;;;9.07;3.92;;;19.20;46.90;;;;;;5033338;28;20022;-81
2021/03/26 13:18:05;;;;;;;6.72;3.10;;;20.00;46.40;;;;;;5027033;28;20025;-83
2021/03/26 13:20:46;;;;;;;7.55;3.58;;;19.40;46.40;;;;;;5033233;28;20029;-82
2021/03/26 13:23:19;;;;;;;11.00;3.95;;;18.60;47.70;;;;;;5033488;28;20049;-82
2021/03/26 13:26:09;;;;;;;9.80;3.38;;;18.60;48.90;;;;;;5027981;28;20099;-82
2021/03/26 13:28:54;;;;;;;6.85;2.97;;;18.60;48.20;;;;;;5017414;28;20121;-81
2021/03/26 13:31:28;;;;;;;10.45;4.10;;;18.60;48.70;;;;;;5022850;28;20029;-82
2021/03/26 13:34:04;;;;;;;4.45;2.65;;;18.80;49.30;;;;;;5025493;28;20591;-82
2021/03/26 13:36:42;;;;;;;8.95;3.05;;;19.70;46.50;;;;;;5033001;28;20026;-82
2021/03/26 13:39:16;;;;;;;5.65;2.35;;;19.90;44.40;;;;;;5034272;28;20132;-82
2021/03/26 13:41:59;;;;;;;5.45;2.20;;;19.50;45.20;;;;;;5032649;28;20025;-83